sensor_id;sensor_type;location;lat;lon;timestamp;temperature;humidity
36424;DHT22;22458;45.328;9.514;2023-05-07T00:00:02;22.50;74.00
36424;DHT22;22458;45.328;9.514;2023-05-07T00:02:28;22.50;74.10
36424;DHT22;22458;45.328;9.514;2023-05-07T00:04:54;22.50;74.10
36424;DHT22;22458;45.328;9.514;2023-05-07T00:07:20;22.40;74.30
36424;DHT22;22458;45.328;9.514;2023-05-07T00:09:46;22.40;74.40
36424;DHT22;22458;45.328;9.514;2023-05-07T00:12:12;22.30;74.40
36424;DHT22;22458;45.328;9.514;2023-05-07T00:14:38;22.30;74.60
36424;DHT22;22458;45.328;9.514;2023-05-07T00:17:04;22.30;74.70
36424;DHT22;22458;45.328;9.514;2023-05-07T00:19:29;22.30;74.70
36424;DHT22;22458;45.328;9.514;2023-05-07T00:21:55;22.30;74.70
36424;DHT22;22458;45.328;9.514;2023-05-07T00:24:22;22.20;74.90
36424;DHT22;22458;45.328;9.514;2023-05-07T00:26:47;22.20;75.10
36424;DHT22;22458;45.328;9.514;2023-05-07T00:29:13;22.20;75.10
36424;DHT22;22458;45.328;9.514;2023-05-07T00:31:39;22.20;75.10
36424;DHT22;22458;45.328;9.514;2023-05-07T00:34:04;22.20;75.10
36424;DHT22;22458;45.328;9.514;2023-05-07T00:36:31;22.20;75.20
36424;DHT22;22458;45.328;9.514;2023-05-07T00:38:59;22.20;75.30
36424;DHT22;22458;45.328;9.514;2023-05-07T00:41:26;22.30;75.40
36424;DHT22;22458;45.328;9.514;2023-05-07T00:43:52;22.20;75.40
36424;DHT22;22458;45.328;9.514;2023-05-07T00:46:20;22.10;75.70
36424;DHT22;22458;45.328;9.514;2023-05-07T00:48:46;22.20;76.00
36424;DHT22;22458;45.328;9.514;2023-05-07T00:51:12;22.20;76.50
36424;DHT22;22458;45.328;9.514;2023-05-07T00:53:39;22.20;76.10
36424;DHT22;22458;45.328;9.514;2023-05-07T00:56:06;22.20;76.10
36424;DHT22;22458;45.328;9.514;2023-05-07T00:58:33;22.20;76.10
36424;DHT22;22458;45.328;9.514;2023-05-07T01:00:59;22.20;76.40
36424;DHT22;22458;45.328;9.514;2023-05-07T01:03:25;22.20;76.50
36424;DHT22;22458;45.328;9.514;2023-05-07T01:05:52;22.20;76.50
36424;DHT22;22458;45.328;9.514;2023-05-07T01:08:19;22.20;76.70
36424;DHT22;22458;45.328;9.514;2023-05-07T01:10:46;22.20;76.70
36424;DHT22;22458;45.328;9.514;2023-05-07T01:13:13;22.20;76.90
36424;DHT22;22458;45.328;9.514;2023-05-07T01:15:40;22.20;76.80
36424;DHT22;22458;45.328;9.514;2023-05-07T01:18:08;22.20;76.80
36424;DHT22;22458;45.328;9.514;2023-05-07T01:20:35;22.30;76.90
36424;DHT22;22458;45.328;9.514;2023-05-07T01:23:01;22.30;77.10
36424;DHT22;22458;45.328;9.514;2023-05-07T01:25:28;22.30;77.10
36424;DHT22;22458;45.328;9.514;2023-05-07T01:27:58;22.30;77.20
36424;DHT22;22458;45.328;9.514;2023-05-07T01:30:29;22.30;77.00
36424;DHT22;22458;45.328;9.514;2023-05-07T01:33:06;22.20;77.40
36424;DHT22;22458;45.328;9.514;2023-05-07T01:35:39;22.10;77.90
36424;DHT22;22458;45.328;9.514;2023-05-07T01:38:06;22.00;78.00
36424;DHT22;22458;45.328;9.514;2023-05-07T01:40:34;22.10;77.90
36424;DHT22;22458;45.328;9.514;2023-05-07T01:43:02;22.10;77.80
36424;DHT22;22458;45.328;9.514;2023-05-07T01:45:28;22.10;77.90
36424;DHT22;22458;45.328;9.514;2023-05-07T01:47:58;22.10;77.90
36424;DHT22;22458;45.328;9.514;2023-05-07T01:50:25;22.10;77.80
36424;DHT22;22458;45.328;9.514;2023-05-07T01:52:51;22.10;77.80
36424;DHT22;22458;45.328;9.514;2023-05-07T01:55:17;22.20;77.80
36424;DHT22;22458;45.328;9.514;2023-05-07T01:57:43;22.10;77.70
36424;DHT22;22458;45.328;9.514;2023-05-07T02:00:10;22.20;77.70
36424;DHT22;22458;45.328;9.514;2023-05-07T02:02:41;22.20;77.80
36424;DHT22;22458;45.328;9.514;2023-05-07T02:05:16;22.30;77.80
36424;DHT22;22458;45.328;9.514;2023-05-07T02:07:44;22.30;77.70
36424;DHT22;22458;45.328;9.514;2023-05-07T02:10:09;22.30;77.80
36424;DHT22;22458;45.328;9.514;2023-05-07T02:12:35;22.30;77.80
36424;DHT22;22458;45.328;9.514;2023-05-07T02:15:01;22.30;77.60
36424;DHT22;22458;45.328;9.514;2023-05-07T02:17:27;22.30;77.50
36424;DHT22;22458;45.328;9.514;2023-05-07T02:19:58;22.20;77.40
36424;DHT22;22458;45.328;9.514;2023-05-07T02:22:25;22.20;77.30
36424;DHT22;22458;45.328;9.514;2023-05-07T02:24:51;22.30;77.10
36424;DHT22;22458;45.328;9.514;2023-05-07T02:27:16;22.30;76.60
36424;DHT22;22458;45.328;9.514;2023-05-07T02:29:44;22.30;76.20
36424;DHT22;22458;45.328;9.514;2023-05-07T02:32:10;22.30;75.70
36424;DHT22;22458;45.328;9.514;2023-05-07T02:34:35;22.20;75.40
36424;DHT22;22458;45.328;9.514;2023-05-07T02:37:01;22.20;75.10
36424;DHT22;22458;45.328;9.514;2023-05-07T02:39:27;22.20;74.80
36424;DHT22;22458;45.328;9.514;2023-05-07T02:41:53;22.30;74.50
36424;DHT22;22458;45.328;9.514;2023-05-07T02:44:18;22.30;74.30
36424;DHT22;22458;45.328;9.514;2023-05-07T02:46:48;22.20;74.10
36424;DHT22;22458;45.328;9.514;2023-05-07T02:49:13;22.20;73.80
36424;DHT22;22458;45.328;9.514;2023-05-07T02:51:39;22.20;73.60
36424;DHT22;22458;45.328;9.514;2023-05-07T02:54:10;22.10;73.40
36424;DHT22;22458;45.328;9.514;2023-05-07T02:56:36;22.10;73.40
36424;DHT22;22458;45.328;9.514;2023-05-07T02:59:02;22.10;73.40
36424;DHT22;22458;45.328;9.514;2023-05-07T03:01:32;22.10;73.30
36424;DHT22;22458;45.328;9.514;2023-05-07T03:04:03;22.00;73.30
36424;DHT22;22458;45.328;9.514;2023-05-07T03:06:30;22.00;73.30
36424;DHT22;22458;45.328;9.514;2023-05-07T03:08:55;22.00;73.50
36424;DHT22;22458;45.328;9.514;2023-05-07T03:11:21;22.00;73.40
36424;DHT22;22458;45.328;9.514;2023-05-07T03:13:47;22.00;73.40
36424;DHT22;22458;45.328;9.514;2023-05-07T03:16:15;22.00;73.30
36424;DHT22;22458;45.328;9.514;2023-05-07T03:18:41;22.10;73.40
36424;DHT22;22458;45.328;9.514;2023-05-07T03:21:07;22.00;73.40
36424;DHT22;22458;45.328;9.514;2023-05-07T03:23:32;22.10;73.40
36424;DHT22;22458;45.328;9.514;2023-05-07T03:25:58;22.10;73.30
36424;DHT22;22458;45.328;9.514;2023-05-07T03:28:25;22.10;73.30
36424;DHT22;22458;45.328;9.514;2023-05-07T03:30:56;22.10;73.30
36424;DHT22;22458;45.328;9.514;2023-05-07T03:33:22;22.10;73.20
36424;DHT22;22458;45.328;9.514;2023-05-07T03:35:48;22.20;73.30
36424;DHT22;22458;45.328;9.514;2023-05-07T03:38:19;22.20;73.30
36424;DHT22;22458;45.328;9.514;2023-05-07T03:40:44;22.20;73.30
36424;DHT22;22458;45.328;9.514;2023-05-07T03:43:10;22.20;73.30
36424;DHT22;22458;45.328;9.514;2023-05-07T03:45:39;22.20;73.40
36424;DHT22;22458;45.328;9.514;2023-05-07T03:48:13;22.10;73.40
36424;DHT22;22458;45.328;9.514;2023-05-07T03:50:40;22.00;73.90
36424;DHT22;22458;45.328;9.514;2023-05-07T03:53:06;21.70;74.70
36424;DHT22;22458;45.328;9.514;2023-05-07T03:55:36;21.60;75.70
36424;DHT22;22458;45.328;9.514;2023-05-07T03:58:02;21.50;75.20
36424;DHT22;22458;45.328;9.514;2023-05-07T04:00:28;21.50;75.30
36424;DHT22;22458;45.328;9.514;2023-05-07T04:02:58;21.40;75.30
36424;DHT22;22458;45.328;9.514;2023-05-07T04:05:27;21.40;75.40
36424;DHT22;22458;45.328;9.514;2023-05-07T04:07:58;21.30;75.30
36424;DHT22;22458;45.328;9.514;2023-05-07T04:10:29;21.20;75.60
36424;DHT22;22458;45.328;9.514;2023-05-07T04:12:57;21.10;76.10
36424;DHT22;22458;45.328;9.514;2023-05-07T04:15:24;21.00;76.80
36424;DHT22;22458;45.328;9.514;2023-05-07T04:17:50;21.00;76.60
36424;DHT22;22458;45.328;9.514;2023-05-07T04:20:18;21.00;76.80
36424;DHT22;22458;45.328;9.514;2023-05-07T04:22:49;20.90;76.70
36424;DHT22;22458;45.328;9.514;2023-05-07T04:25:16;20.90;76.80
36424;DHT22;22458;45.328;9.514;2023-05-07T04:27:42;20.90;76.90
36424;DHT22;22458;45.328;9.514;2023-05-07T04:30:08;20.90;77.00
36424;DHT22;22458;45.328;9.514;2023-05-07T04:32:37;20.90;77.10
36424;DHT22;22458;45.328;9.514;2023-05-07T04:35:04;20.90;77.00
36424;DHT22;22458;45.328;9.514;2023-05-07T04:37:32;20.80;77.80
36424;DHT22;22458;45.328;9.514;2023-05-07T04:39:59;20.80;78.50
36424;DHT22;22458;45.328;9.514;2023-05-07T04:42:26;20.80;78.90
36424;DHT22;22458;45.328;9.514;2023-05-07T04:44:53;20.80;79.40
36424;DHT22;22458;45.328;9.514;2023-05-07T04:47:20;20.80;79.70
36424;DHT22;22458;45.328;9.514;2023-05-07T04:49:46;20.70;79.90
36424;DHT22;22458;45.328;9.514;2023-05-07T04:52:12;20.70;80.10
36424;DHT22;22458;45.328;9.514;2023-05-07T04:54:38;20.70;80.20
36424;DHT22;22458;45.328;9.514;2023-05-07T04:57:05;20.70;80.30
36424;DHT22;22458;45.328;9.514;2023-05-07T04:59:32;20.70;80.50
36424;DHT22;22458;45.328;9.514;2023-05-07T05:01:58;20.70;80.60
36424;DHT22;22458;45.328;9.514;2023-05-07T05:04:24;20.70;80.80
36424;DHT22;22458;45.328;9.514;2023-05-07T05:06:50;20.70;80.80
36424;DHT22;22458;45.328;9.514;2023-05-07T05:09:17;20.70;80.70
36424;DHT22;22458;45.328;9.514;2023-05-07T05:11:43;20.70;80.70
36424;DHT22;22458;45.328;9.514;2023-05-07T05:14:09;20.70;80.70
36424;DHT22;22458;45.328;9.514;2023-05-07T05:16:35;20.70;80.80
36424;DHT22;22458;45.328;9.514;2023-05-07T05:19:02;20.80;80.80
36424;DHT22;22458;45.328;9.514;2023-05-07T05:21:29;20.90;80.70
36424;DHT22;22458;45.328;9.514;2023-05-07T05:23:59;20.90;80.50
36424;DHT22;22458;45.328;9.514;2023-05-07T05:26:25;21.00;81.20
36424;DHT22;22458;45.328;9.514;2023-05-07T05:28:51;21.00;80.60
36424;DHT22;22458;45.328;9.514;2023-05-07T05:31:20;21.00;80.60
36424;DHT22;22458;45.328;9.514;2023-05-07T05:33:48;21.00;80.70
36424;DHT22;22458;45.328;9.514;2023-05-07T05:36:14;20.90;81.20
36424;DHT22;22458;45.328;9.514;2023-05-07T05:38:41;20.90;81.10
36424;DHT22;22458;45.328;9.514;2023-05-07T05:41:09;21.00;81.20
36424;DHT22;22458;45.328;9.514;2023-05-07T05:43:34;21.00;81.10
36424;DHT22;22458;45.328;9.514;2023-05-07T05:46:00;21.00;81.00
36424;DHT22;22458;45.328;9.514;2023-05-07T05:48:26;21.10;80.90
36424;DHT22;22458;45.328;9.514;2023-05-07T05:50:52;21.10;81.00
36424;DHT22;22458;45.328;9.514;2023-05-07T05:53:18;21.10;81.10
36424;DHT22;22458;45.328;9.514;2023-05-07T05:55:44;21.10;81.00
36424;DHT22;22458;45.328;9.514;2023-05-07T05:58:11;21.10;80.80
36424;DHT22;22458;45.328;9.514;2023-05-07T06:00:41;21.20;80.50
36424;DHT22;22458;45.328;9.514;2023-05-07T06:03:07;21.30;80.40
36424;DHT22;22458;45.328;9.514;2023-05-07T06:05:34;21.10;80.50
36424;DHT22;22458;45.328;9.514;2023-05-07T06:08:00;21.10;81.00
36424;DHT22;22458;45.328;9.514;2023-05-07T06:10:30;21.20;81.10
36424;DHT22;22458;45.328;9.514;2023-05-07T06:12:56;21.30;81.00
36424;DHT22;22458;45.328;9.514;2023-05-07T06:15:22;21.30;81.20
36424;DHT22;22458;45.328;9.514;2023-05-07T06:17:48;21.40;80.70
36424;DHT22;22458;45.328;9.514;2023-05-07T06:20:14;21.30;80.50
36424;DHT22;22458;45.328;9.514;2023-05-07T06:22:40;21.10;81.10
36424;DHT22;22458;45.328;9.514;2023-05-07T06:25:08;21.00;81.90
36424;DHT22;22458;45.328;9.514;2023-05-07T06:27:34;20.80;82.40
36424;DHT22;22458;45.328;9.514;2023-05-07T06:30:00;20.70;82.70
36424;DHT22;22458;45.328;9.514;2023-05-07T06:32:26;20.70;82.70
36424;DHT22;22458;45.328;9.514;2023-05-07T06:34:52;20.70;82.50
36424;DHT22;22458;45.328;9.514;2023-05-07T06:37:18;20.70;82.20
36424;DHT22;22458;45.328;9.514;2023-05-07T06:39:57;20.70;82.20
36424;DHT22;22458;45.328;9.514;2023-05-07T06:42:23;20.70;82.10
36424;DHT22;22458;45.328;9.514;2023-05-07T06:44:49;20.70;81.90
36424;DHT22;22458;45.328;9.514;2023-05-07T06:47:17;20.80;81.70
36424;DHT22;22458;45.328;9.514;2023-05-07T06:49:45;20.80;81.30
36424;DHT22;22458;45.328;9.514;2023-05-07T06:52:15;20.80;81.00
36424;DHT22;22458;45.328;9.514;2023-05-07T06:54:41;20.80;80.90
36424;DHT22;22458;45.328;9.514;2023-05-07T06:57:08;20.90;80.50
36424;DHT22;22458;45.328;9.514;2023-05-07T06:59:34;21.00;80.10
36424;DHT22;22458;45.328;9.514;2023-05-07T07:02:00;21.10;79.60
36424;DHT22;22458;45.328;9.514;2023-05-07T07:04:26;21.20;79.40
36424;DHT22;22458;45.328;9.514;2023-05-07T07:07:00;21.30;79.40
36424;DHT22;22458;45.328;9.514;2023-05-07T07:09:26;21.20;79.50
36424;DHT22;22458;45.328;9.514;2023-05-07T07:11:53;21.20;79.60
36424;DHT22;22458;45.328;9.514;2023-05-07T07:14:18;21.20;79.60
36424;DHT22;22458;45.328;9.514;2023-05-07T07:16:48;21.20;79.60
36424;DHT22;22458;45.328;9.514;2023-05-07T07:19:16;21.20;79.50
36424;DHT22;22458;45.328;9.514;2023-05-07T07:21:42;21.30;79.40
36424;DHT22;22458;45.328;9.514;2023-05-07T07:24:10;21.40;79.10
36424;DHT22;22458;45.328;9.514;2023-05-07T07:26:36;21.50;78.90
36424;DHT22;22458;45.328;9.514;2023-05-07T07:29:02;21.60;78.60
36424;DHT22;22458;45.328;9.514;2023-05-07T07:31:28;21.70;78.20
36424;DHT22;22458;45.328;9.514;2023-05-07T07:33:54;21.80;77.70
36424;DHT22;22458;45.328;9.514;2023-05-07T07:36:20;21.90;77.20
36424;DHT22;22458;45.328;9.514;2023-05-07T07:38:46;22.00;76.90
36424;DHT22;22458;45.328;9.514;2023-05-07T07:41:13;22.00;76.70
36424;DHT22;22458;45.328;9.514;2023-05-07T07:43:38;22.00;76.70
36424;DHT22;22458;45.328;9.514;2023-05-07T07:46:04;22.00;76.50
36424;DHT22;22458;45.328;9.514;2023-05-07T07:48:31;22.10;76.30
36424;DHT22;22458;45.328;9.514;2023-05-07T07:50:57;22.10;76.20
36424;DHT22;22458;45.328;9.514;2023-05-07T07:53:23;22.10;76.10
36424;DHT22;22458;45.328;9.514;2023-05-07T07:55:49;22.20;76.00
36424;DHT22;22458;45.328;9.514;2023-05-07T07:58:18;22.30;75.90
36424;DHT22;22458;45.328;9.514;2023-05-07T08:00:44;22.30;76.00
36424;DHT22;22458;45.328;9.514;2023-05-07T08:03:10;22.30;76.10
36424;DHT22;22458;45.328;9.514;2023-05-07T08:05:40;22.30;76.10
36424;DHT22;22458;45.328;9.514;2023-05-07T08:08:06;22.30;76.00
36424;DHT22;22458;45.328;9.514;2023-05-07T08:10:34;22.40;75.80
36424;DHT22;22458;45.328;9.514;2023-05-07T08:13:05;22.40;75.70
36424;DHT22;22458;45.328;9.514;2023-05-07T08:15:31;22.50;75.50
36424;DHT22;22458;45.328;9.514;2023-05-07T08:17:58;22.50;75.50
36424;DHT22;22458;45.328;9.514;2023-05-07T08:20:26;22.50;75.30
36424;DHT22;22458;45.328;9.514;2023-05-07T08:22:52;22.40;75.30
36424;DHT22;22458;45.328;9.514;2023-05-07T08:25:18;22.40;75.20
36424;DHT22;22458;45.328;9.514;2023-05-07T08:27:44;22.50;75.10
36424;DHT22;22458;45.328;9.514;2023-05-07T08:30:11;22.50;75.00
36424;DHT22;22458;45.328;9.514;2023-05-07T08:32:37;22.60;75.00
36424;DHT22;22458;45.328;9.514;2023-05-07T08:35:03;22.70;75.20
36424;DHT22;22458;45.328;9.514;2023-05-07T08:37:29;22.80;75.30
36424;DHT22;22458;45.328;9.514;2023-05-07T08:39:55;22.90;75.40
36424;DHT22;22458;45.328;9.514;2023-05-07T08:42:26;23.10;75.40
36424;DHT22;22458;45.328;9.514;2023-05-07T08:44:57;23.20;74.90
36424;DHT22;22458;45.328;9.514;2023-05-07T08:47:29;23.20;74.50
36424;DHT22;22458;45.328;9.514;2023-05-07T08:50:00;23.40;74.00
36424;DHT22;22458;45.328;9.514;2023-05-07T08:52:27;23.50;73.60
36424;DHT22;22458;45.328;9.514;2023-05-07T08:54:53;23.70;73.00
36424;DHT22;22458;45.328;9.514;2023-05-07T08:57:19;23.80;72.70
36424;DHT22;22458;45.328;9.514;2023-05-07T08:59:47;23.90;72.30
36424;DHT22;22458;45.328;9.514;2023-05-07T09:02:13;24.00;72.00
36424;DHT22;22458;45.328;9.514;2023-05-07T09:04:40;24.10;71.50
36424;DHT22;22458;45.328;9.514;2023-05-07T09:07:06;24.10;71.20
36424;DHT22;22458;45.328;9.514;2023-05-07T09:09:35;24.10;71.10
36424;DHT22;22458;45.328;9.514;2023-05-07T09:12:03;24.20;70.90
36424;DHT22;22458;45.328;9.514;2023-05-07T09:14:32;24.20;70.70
36424;DHT22;22458;45.328;9.514;2023-05-07T09:16:58;24.20;70.80
36424;DHT22;22458;45.328;9.514;2023-05-07T09:19:25;24.20;70.70
36424;DHT22;22458;45.328;9.514;2023-05-07T09:22:00;24.30;70.50
36424;DHT22;22458;45.328;9.514;2023-05-07T09:24:28;24.40;70.30
36424;DHT22;22458;45.328;9.514;2023-05-07T09:26:59;24.40;69.90
36424;DHT22;22458;45.328;9.514;2023-05-07T09:29:27;24.50;70.50
36424;DHT22;22458;45.328;9.514;2023-05-07T09:31:55;24.60;69.50
36424;DHT22;22458;45.328;9.514;2023-05-07T09:34:21;24.70;69.40
36424;DHT22;22458;45.328;9.514;2023-05-07T09:36:47;24.90;68.80
36424;DHT22;22458;45.328;9.514;2023-05-07T09:39:15;24.90;68.20
36424;DHT22;22458;45.328;9.514;2023-05-07T09:41:45;25.00;68.00
36424;DHT22;22458;45.328;9.514;2023-05-07T09:44:34;25.00;68.00
36424;DHT22;22458;45.328;9.514;2023-05-07T09:47:04;25.20;67.70
36424;DHT22;22458;45.328;9.514;2023-05-07T09:49:38;25.20;67.20
36424;DHT22;22458;45.328;9.514;2023-05-07T09:52:08;25.30;67.10
36424;DHT22;22458;45.328;9.514;2023-05-07T09:54:40;25.30;66.40
36424;DHT22;22458;45.328;9.514;2023-05-07T09:57:13;25.40;66.30
36424;DHT22;22458;45.328;9.514;2023-05-07T09:59:42;25.50;66.30
36424;DHT22;22458;45.328;9.514;2023-05-07T10:02:11;25.60;66.10
36424;DHT22;22458;45.328;9.514;2023-05-07T10:04:46;25.70;65.70
36424;DHT22;22458;45.328;9.514;2023-05-07T10:07:16;25.70;65.40
36424;DHT22;22458;45.328;9.514;2023-05-07T10:09:42;25.80;65.00
36424;DHT22;22458;45.328;9.514;2023-05-07T10:12:18;25.90;64.80
36424;DHT22;22458;45.328;9.514;2023-05-07T10:14:45;25.90;64.40
36424;DHT22;22458;45.328;9.514;2023-05-07T10:17:12;26.00;65.00
36424;DHT22;22458;45.328;9.514;2023-05-07T10:19:39;26.00;64.20
36424;DHT22;22458;45.328;9.514;2023-05-07T10:22:06;26.10;64.20
36424;DHT22;22458;45.328;9.514;2023-05-07T10:24:38;26.10;63.70
36424;DHT22;22458;45.328;9.514;2023-05-07T10:27:12;26.20;63.50
36424;DHT22;22458;45.328;9.514;2023-05-07T10:34:47;26.30;62.70
36424;DHT22;22458;45.328;9.514;2023-05-07T10:37:15;26.40;62.60
36424;DHT22;22458;45.328;9.514;2023-05-07T10:39:42;26.40;62.60
36424;DHT22;22458;45.328;9.514;2023-05-07T10:42:13;26.40;62.60
36424;DHT22;22458;45.328;9.514;2023-05-07T10:44:44;26.30;62.20
36424;DHT22;22458;45.328;9.514;2023-05-07T10:47:16;26.30;62.40
36424;DHT22;22458;45.328;9.514;2023-05-07T10:52:21;26.40;61.70
36424;DHT22;22458;45.328;9.514;2023-05-07T10:57:49;26.50;61.60
36424;DHT22;22458;45.328;9.514;2023-05-07T11:05:30;26.60;60.30
36424;DHT22;22458;45.328;9.514;2023-05-07T11:08:06;26.70;60.40
36424;DHT22;22458;45.328;9.514;2023-05-07T11:10:56;26.80;60.40
36424;DHT22;22458;45.328;9.514;2023-05-07T11:13:48;26.90;59.90
36424;DHT22;22458;45.328;9.514;2023-05-07T11:16:43;26.90;60.00
36424;DHT22;22458;45.328;9.514;2023-05-07T11:19:17;27.10;59.60
36424;DHT22;22458;45.328;9.514;2023-05-07T11:22:03;27.10;59.00
36424;DHT22;22458;45.328;9.514;2023-05-07T11:24:42;27.10;58.90
36424;DHT22;22458;45.328;9.514;2023-05-07T11:27:09;27.20;58.70
36424;DHT22;22458;45.328;9.514;2023-05-07T11:29:36;27.30;58.50
36424;DHT22;22458;45.328;9.514;2023-05-07T11:32:09;27.50;58.00
36424;DHT22;22458;45.328;9.514;2023-05-07T11:34:44;27.60;57.60
36424;DHT22;22458;45.328;9.514;2023-05-07T11:37:11;27.70;56.90
36424;DHT22;22458;45.328;9.514;2023-05-07T11:40:05;27.70;56.20
36424;DHT22;22458;45.328;9.514;2023-05-07T11:42:38;27.80;55.80
36424;DHT22;22458;45.328;9.514;2023-05-07T11:45:05;27.90;55.40
36424;DHT22;22458;45.328;9.514;2023-05-07T11:47:34;27.90;55.70
36424;DHT22;22458;45.328;9.514;2023-05-07T11:50:07;28.10;55.90
36424;DHT22;22458;45.328;9.514;2023-05-07T11:52:34;28.20;54.80
36424;DHT22;22458;45.328;9.514;2023-05-07T11:55:01;28.30;54.70
36424;DHT22;22458;45.328;9.514;2023-05-07T11:57:27;28.40;54.80
36424;DHT22;22458;45.328;9.514;2023-05-07T11:59:55;28.40;55.00
36424;DHT22;22458;45.328;9.514;2023-05-07T12:02:21;28.50;54.80
36424;DHT22;22458;45.328;9.514;2023-05-07T12:04:47;28.50;54.50
36424;DHT22;22458;45.328;9.514;2023-05-07T12:07:13;28.50;54.50
36424;DHT22;22458;45.328;9.514;2023-05-07T12:09:43;28.50;54.80
36424;DHT22;22458;45.328;9.514;2023-05-07T12:12:09;28.60;54.60
36424;DHT22;22458;45.328;9.514;2023-05-07T12:14:43;28.60;54.70
36424;DHT22;22458;45.328;9.514;2023-05-07T12:17:10;28.70;54.00
36424;DHT22;22458;45.328;9.514;2023-05-07T12:19:37;28.80;54.40
36424;DHT22;22458;45.328;9.514;2023-05-07T12:22:04;28.90;54.40
36424;DHT22;22458;45.328;9.514;2023-05-07T12:24:43;29.00;54.40
36424;DHT22;22458;45.328;9.514;2023-05-07T12:27:09;29.20;54.40
36424;DHT22;22458;45.328;9.514;2023-05-07T12:29:35;29.20;54.60
36424;DHT22;22458;45.328;9.514;2023-05-07T12:32:01;29.30;54.80
36424;DHT22;22458;45.328;9.514;2023-05-07T12:34:27;29.40;54.50
36424;DHT22;22458;45.328;9.514;2023-05-07T12:36:54;29.50;54.00
36424;DHT22;22458;45.328;9.514;2023-05-07T12:39:20;29.50;53.80
36424;DHT22;22458;45.328;9.514;2023-05-07T12:41:56;29.50;53.30
36424;DHT22;22458;45.328;9.514;2023-05-07T12:44:31;29.50;53.20
36424;DHT22;22458;45.328;9.514;2023-05-07T12:47:01;29.50;53.40
36424;DHT22;22458;45.328;9.514;2023-05-07T12:49:26;29.40;53.20
36424;DHT22;22458;45.328;9.514;2023-05-07T12:51:53;29.40;53.00
36424;DHT22;22458;45.328;9.514;2023-05-07T12:54:33;29.30;52.50
36424;DHT22;22458;45.328;9.514;2023-05-07T12:57:07;29.30;52.00
36424;DHT22;22458;45.328;9.514;2023-05-07T12:59:38;29.30;51.80
36424;DHT22;22458;45.328;9.514;2023-05-07T13:02:04;29.30;51.40
36424;DHT22;22458;45.328;9.514;2023-05-07T13:04:30;29.50;51.60
36424;DHT22;22458;45.328;9.514;2023-05-07T13:06:56;29.60;51.30
36424;DHT22;22458;45.328;9.514;2023-05-07T13:09:22;29.70;51.30
36424;DHT22;22458;45.328;9.514;2023-05-07T13:11:48;29.80;51.70
36424;DHT22;22458;45.328;9.514;2023-05-07T13:14:13;29.90;52.00
36424;DHT22;22458;45.328;9.514;2023-05-07T13:16:39;30.10;51.90
36424;DHT22;22458;45.328;9.514;2023-05-07T13:19:05;30.20;51.70
36424;DHT22;22458;45.328;9.514;2023-05-07T13:21:30;30.20;51.30
36424;DHT22;22458;45.328;9.514;2023-05-07T13:23:59;30.20;50.90
36424;DHT22;22458;45.328;9.514;2023-05-07T13:26:31;30.10;51.20
36424;DHT22;22458;45.328;9.514;2023-05-07T13:28:57;30.00;51.00
36424;DHT22;22458;45.328;9.514;2023-05-07T13:31:23;30.00;51.10
36424;DHT22;22458;45.328;9.514;2023-05-07T13:33:49;30.10;51.70
36424;DHT22;22458;45.328;9.514;2023-05-07T13:36:15;30.10;50.90
36424;DHT22;22458;45.328;9.514;2023-05-07T13:38:41;30.20;50.60
36424;DHT22;22458;45.328;9.514;2023-05-07T13:41:06;30.20;50.10
36424;DHT22;22458;45.328;9.514;2023-05-07T13:43:32;30.10;50.10
36424;DHT22;22458;45.328;9.514;2023-05-07T13:46:01;30.10;50.10
36424;DHT22;22458;45.328;9.514;2023-05-07T13:48:27;30.00;50.60
36424;DHT22;22458;45.328;9.514;2023-05-07T13:50:53;29.80;50.40
36424;DHT22;22458;45.328;9.514;2023-05-07T13:53:19;29.70;50.50
36424;DHT22;22458;45.328;9.514;2023-05-07T13:55:45;29.60;50.50
36424;DHT22;22458;45.328;9.514;2023-05-07T13:58:11;29.60;50.70
36424;DHT22;22458;45.328;9.514;2023-05-07T14:00:37;29.60;50.70
36424;DHT22;22458;45.328;9.514;2023-05-07T14:03:04;29.60;50.80
36424;DHT22;22458;45.328;9.514;2023-05-07T14:05:30;29.50;50.60
36424;DHT22;22458;45.328;9.514;2023-05-07T14:07:59;29.30;50.60
36424;DHT22;22458;45.328;9.514;2023-05-07T14:10:25;29.40;50.60
36424;DHT22;22458;45.328;9.514;2023-05-07T14:12:51;29.40;50.70
36424;DHT22;22458;45.328;9.514;2023-05-07T14:15:18;29.40;50.60
36424;DHT22;22458;45.328;9.514;2023-05-07T14:17:44;29.40;50.60
36424;DHT22;22458;45.328;9.514;2023-05-07T14:20:12;29.50;50.90
36424;DHT22;22458;45.328;9.514;2023-05-07T14:22:38;29.40;51.00
36424;DHT22;22458;45.328;9.514;2023-05-07T14:25:04;29.40;51.30
36424;DHT22;22458;45.328;9.514;2023-05-07T14:27:30;29.30;51.20
36424;DHT22;22458;45.328;9.514;2023-05-07T14:29:55;29.40;51.40
36424;DHT22;22458;45.328;9.514;2023-05-07T14:32:21;29.40;51.10
36424;DHT22;22458;45.328;9.514;2023-05-07T14:34:47;29.30;51.00
36424;DHT22;22458;45.328;9.514;2023-05-07T14:37:13;29.30;50.90
36424;DHT22;22458;45.328;9.514;2023-05-07T14:39:39;29.30;51.00
36424;DHT22;22458;45.328;9.514;2023-05-07T14:42:05;29.30;51.40
36424;DHT22;22458;45.328;9.514;2023-05-07T14:44:36;29.30;51.00
36424;DHT22;22458;45.328;9.514;2023-05-07T14:47:01;29.20;50.70
36424;DHT22;22458;45.328;9.514;2023-05-07T14:49:27;29.20;51.00
36424;DHT22;22458;45.328;9.514;2023-05-07T14:51:53;29.10;50.80
36424;DHT22;22458;45.328;9.514;2023-05-07T14:54:19;29.10;51.10
36424;DHT22;22458;45.328;9.514;2023-05-07T14:56:45;29.00;51.00
36424;DHT22;22458;45.328;9.514;2023-05-07T14:59:13;29.10;51.40
36424;DHT22;22458;45.328;9.514;2023-05-07T15:01:43;29.10;51.80
36424;DHT22;22458;45.328;9.514;2023-05-07T15:04:11;29.10;51.20
36424;DHT22;22458;45.328;9.514;2023-05-07T15:06:36;29.10;51.20
36424;DHT22;22458;45.328;9.514;2023-05-07T15:09:02;29.10;51.30
36424;DHT22;22458;45.328;9.514;2023-05-07T15:11:28;29.00;51.00
36424;DHT22;22458;45.328;9.514;2023-05-07T15:13:54;29.00;51.10
36424;DHT22;22458;45.328;9.514;2023-05-07T15:16:20;28.90;51.00
36424;DHT22;22458;45.328;9.514;2023-05-07T15:18:46;28.80;51.10
36424;DHT22;22458;45.328;9.514;2023-05-07T15:21:12;28.70;51.20
36424;DHT22;22458;45.328;9.514;2023-05-07T15:23:39;28.80;51.80
36424;DHT22;22458;45.328;9.514;2023-05-07T15:26:06;28.90;51.80
36424;DHT22;22458;45.328;9.514;2023-05-07T15:28:33;29.00;51.70
36424;DHT22;22458;45.328;9.514;2023-05-07T15:31:00;29.00;51.70
36424;DHT22;22458;45.328;9.514;2023-05-07T15:33:25;29.20;51.50
36424;DHT22;22458;45.328;9.514;2023-05-07T15:35:51;29.10;51.20
36424;DHT22;22458;45.328;9.514;2023-05-07T15:38:17;29.10;51.10
36424;DHT22;22458;45.328;9.514;2023-05-07T15:40:43;29.00;51.20
36424;DHT22;22458;45.328;9.514;2023-05-07T15:43:09;29.00;51.40
36424;DHT22;22458;45.328;9.514;2023-05-07T15:45:39;28.90;51.30
36424;DHT22;22458;45.328;9.514;2023-05-07T15:48:06;28.90;51.30